Time;durP1;ratioP1;P1;durP2;ratioP2;P2;SDS_P1;SDS_P2;PMS_P1;PMS_P2;Temp;Humidity;BMP_temperature;BMP_pressure;BME280_temperature;BME280_humidity;BME280_pressure;Samples;Min_cycle;Max_cycle;Signal;HPM_P1;HPM_P2
2022/01/18 00:00:30;;;;;;;1.57;0.80;;;2.20;99.90;;;;;;5054793;28;20204;-73
2022/01/18 00:02:58;;;;;;;1.83;0.90;;;2.20;99.90;;;;;;5072129;28;20205;-74
2022/01/18 00:05:26;;;;;;;4.03;1.13;;;2.20;99.90;;;;;;5059734;28;20209;-73
2022/01/18 00:07:53;;;;;;;3.13;1.10;;;2.20;99.90;;;;;;5054050;28;20206;-73
2022/01/18 00:10:22;;;;;;;3.57;0.90;;;2.20;99.90;;;;;;5056984;28;20203;-73
2022/01/18 00:13:09;;;;;;;2.10;1.20;;;2.30;99.90;;;;;;5053752;28;20747;-73
2022/01/18 00:15:41;;;;;;;3.07;0.97;;;2.30;99.90;;;;;;5052889;28;20221;-74
2022/01/18 00:18:11;;;;;;;4.13;1.10;;;2.30;99.90;;;;;;5054040;28;21082;-74
2022/01/18 00:21:00;;;;;;;3.13;1.27;;;2.30;99.90;;;;;;5057782;28;20198;-73
2022/01/18 00:23:30;;;;;;;3.07;1.10;;;2.30;99.90;;;;;;5053492;28;20213;-74
2022/01/18 00:25:58;;;;;;;2.43;0.90;;;2.30;99.90;;;;;;5054978;28;20667;-73
2022/01/18 00:28:29;;;;;;;4.87;1.30;;;2.30;99.90;;;;;;5052356;28;20205;-73
2022/01/18 00:33:56;;;;;;;4.90;2.77;;;2.30;99.90;;;;;;5051206;28;20547;-74
2022/01/18 00:36:27;;;;;;;3.27;1.37;;;2.30;99.90;;;;;;5052952;28;20221;-73
2022/01/18 00:38:55;;;;;;;8.20;1.53;;;2.30;99.90;;;;;;5051584;28;20202;-72
2022/01/18 00:41:24;;;;;;;2.30;1.07;;;2.30;99.90;;;;;;5058779;28;20676;-72
2022/01/18 00:43:54;;;;;;;3.60;1.07;;;2.30;99.90;;;;;;5055346;28;20212;-73
2022/01/18 00:46:23;;;;;;;4.50;1.30;;;2.30;99.90;;;;;;5054549;28;20540;-72
2022/01/18 00:48:52;;;;;;;5.43;2.00;;;2.30;99.90;;;;;;5058328;28;20233;-73
2022/01/18 00:51:19;;;;;;;3.03;1.30;;;2.30;99.90;;;;;;5050749;28;20214;-73
2022/01/18 00:53:47;;;;;;;3.57;1.67;;;2.30;99.90;;;;;;5062346;28;20615;-73
2022/01/18 00:56:24;;;;;;;2.07;1.13;;;2.30;99.90;;;;;;5052054;28;20308;-73
2022/01/18 00:58:54;;;;;;;1.90;1.23;;;2.30;99.90;;;;;;5049677;28;20194;-73
2022/01/18 01:01:24;;;;;;;6.93;1.50;;;2.30;99.90;;;;;;5049930;28;20240;-73
2022/01/18 01:03:54;;;;;;;2.93;1.53;;;2.20;99.90;;;;;;5056166;28;20204;-73
2022/01/18 01:06:22;;;;;;;4.63;1.60;;;2.20;99.90;;;;;;5059739;28;20210;-73
2022/01/18 01:08:49;;;;;;;4.53;1.60;;;2.20;99.90;;;;;;5048658;28;20214;-74
2022/01/18 01:11:17;;;;;;;3.93;1.83;;;2.20;99.90;;;;;;5052459;28;20241;-73
2022/01/18 01:13:47;;;;;;;6.63;2.87;;;2.20;99.90;;;;;;5058559;28;20206;-72
2022/01/18 01:19:24;;;;;;;5.03;2.37;;;2.10;99.90;;;;;;5007426;28;20300;-73
2022/01/18 01:33:27;;;;;;;6.00;2.33;;;2.10;99.90;;;;;;5062675;28;20251;-73
2022/01/18 01:42:00;;;;;;;4.67;2.37;;;1.90;99.90;;;;;;5057581;28;20201;-72
2022/01/18 01:44:39;;;;;;;5.83;2.30;;;1.90;99.90;;;;;;5051643;28;20565;-73
2022/01/18 01:47:07;;;;;;;4.53;2.40;;;1.80;99.90;;;;;;5050655;28;20198;-72
2022/01/18 01:49:35;;;;;;;6.10;2.47;;;1.80;99.90;;;;;;5055877;28;20299;-71
2022/01/18 01:52:05;;;;;;;4.93;2.60;;;1.70;99.90;;;;;;5049461;28;20391;-73
2022/01/18 01:54:32;;;;;;;3.90;2.30;;;1.70;99.90;;;;;;5056446;28;20282;-72
2022/01/18 01:56:59;;;;;;;5.07;2.40;;;1.70;99.90;;;;;;5062632;28;20221;-72
2022/01/18 01:59:26;;;;;;;3.77;2.40;;;1.60;99.90;;;;;;5055633;28;20211;-73
2022/01/18 02:01:53;;;;;;;6.93;2.93;;;1.60;99.90;;;;;;5054197;28;20214;-72
2022/01/18 02:04:20;;;;;;;4.20;2.47;;;1.50;99.90;;;;;;5066553;28;20205;-72
2022/01/18 02:06:48;;;;;;;6.43;2.60;;;1.50;99.90;;;;;;5058243;28;20206;-72
2022/01/18 02:09:15;;;;;;;6.40;2.80;;;1.40;99.90;;;;;;5051471;28;20206;-72
2022/01/18 02:11:42;;;;;;;7.17;2.90;;;1.30;99.90;;;;;;5054199;28;20317;-72
2022/01/18 02:14:14;;;;;;;4.30;2.50;;;1.20;99.90;;;;;;5050777;28;20214;-73
2022/01/18 02:22:12;;;;;;;6.53;2.90;;;1.10;99.90;;;;;;5054585;28;20204;-74
2022/01/18 02:24:39;;;;;;;4.60;2.90;;;1.00;99.90;;;;;;5041319;28;20585;-73
2022/01/18 02:27:07;;;;;;;7.93;3.20;;;0.90;99.90;;;;;;5052966;28;20292;-73
2022/01/18 02:29:33;;;;;;;5.73;2.97;;;0.90;99.90;;;;;;5051832;28;20198;-74
2022/01/18 02:32:01;;;;;;;8.77;3.43;;;0.80;99.90;;;;;;5050637;28;20216;-75
2022/01/18 02:34:28;;;;;;;11.83;3.93;;;0.80;99.90;;;;;;5050168;28;20236;-74
2022/01/18 02:36:57;;;;;;;5.23;3.10;;;0.80;99.90;;;;;;5048048;28;20199;-73
2022/01/18 02:39:27;;;;;;;7.63;3.00;;;0.70;99.90;;;;;;5043438;28;20210;-73
2022/01/18 02:41:56;;;;;;;8.67;3.57;;;0.70;99.90;;;;;;5051828;28;20206;-73
2022/01/18 02:44:23;;;;;;;8.27;3.07;;;0.30;99.90;;;;;;5057341;28;20214;-73
2022/01/18 02:46:50;;;;;;;6.23;3.73;;;0.60;99.90;;;;;;5050213;28;20202;-73
2022/01/18 02:49:17;;;;;;;7.47;2.97;;;0.60;99.90;;;;;;5054725;28;20221;-73
2022/01/18 02:51:45;;;;;;;6.03;2.93;;;0.50;99.90;;;;;;5059107;28;20202;-73
2022/01/18 02:54:13;;;;;;;6.03;3.20;;;0.50;99.90;;;;;;5052227;28;20671;-73
2022/01/18 02:56:47;;;;;;;8.30;3.53;;;0.50;99.90;;;;;;5051836;28;20232;-73
2022/01/18 02:59:20;;;;;;;5.70;3.03;;;0.50;99.90;;;;;;5040366;28;20224;-72
2022/01/18 03:04:33;;;;;;;7.13;3.40;;;0.50;99.90;;;;;;5043306;28;20201;-72
2022/01/18 03:07:00;;;;;;;7.03;3.10;;;0.40;99.90;;;;;;5054866;28;20268;-73
2022/01/18 03:09:26;;;;;;;6.40;3.20;;;0.40;99.90;;;;;;5054424;28;20671;-72
2022/01/18 03:11:55;;;;;;;6.07;3.30;;;0.40;99.90;;;;;;5066146;28;20238;-73
2022/01/18 03:14:22;;;;;;;7.57;3.47;;;0.40;99.90;;;;;;5059658;28;20644;-73
2022/01/18 03:16:49;;;;;;;6.87;3.23;;;0.40;99.90;;;;;;5067163;28;20572;-74
2022/01/18 03:19:16;;;;;;;5.23;2.80;;;0.40;99.90;;;;;;5060074;28;20209;-73
2022/01/18 03:21:43;;;;;;;7.97;2.87;;;0.30;99.90;;;;;;5059985;28;20686;-73
2022/01/18 03:24:19;;;;;;;6.13;2.70;;;0.30;99.90;;;;;;5065494;28;20635;-73
2022/01/18 03:29:32;;;;;;;7.90;2.77;;;0.20;99.90;;;;;;5060000;28;20201;-72
2022/01/18 03:31:59;;;;;;;6.47;3.10;;;0.20;99.90;;;;;;5066209;28;20640;-72
2022/01/18 03:34:26;;;;;;;5.53;3.47;;;0.20;99.90;;;;;;5069245;28;20205;-72
2022/01/18 03:36:53;;;;;;;6.00;2.80;;;0.20;99.90;;;;;;5058970;28;20244;-73
2022/01/18 03:39:20;;;;;;;4.93;3.07;;;0.20;99.90;;;;;;5055180;28;20236;-72
2022/01/18 03:41:54;;;;;;;7.53;2.90;;;0.20;99.90;;;;;;5044486;28;20206;-72
2022/01/18 03:44:22;;;;;;;6.37;3.23;;;0.20;99.90;;;;;;5056714;28;20251;-72
2022/01/18 03:46:50;;;;;;;7.73;2.80;;;0.20;99.90;;;;;;5052899;28;20542;-73
2022/01/18 03:49:19;;;;;;;5.50;2.63;;;0.20;99.90;;;;;;5055037;28;20248;-73
2022/01/18 03:51:46;;;;;;;8.43;2.93;;;0.20;99.90;;;;;;5055901;28;20888;-73
2022/01/18 03:54:20;;;;;;;6.37;3.07;;;0.20;99.90;;;;;;5051415;28;20277;-73
2022/01/18 03:56:47;;;;;;;8.17;2.83;;;0.10;99.90;;;;;;5061364;28;20232;-74
2022/01/18 03:59:14;;;;;;;3.93;2.10;;;0.10;99.90;;;;;;5056007;28;20206;-73
2022/01/18 04:01:41;;;;;;;5.80;2.43;;;0.20;99.90;;;;;;5055510;28;20535;-72
2022/01/18 04:04:09;;;;;;;4.70;2.50;;;0.10;99.90;;;;;;5055437;28;20237;-73
2022/01/18 04:06:38;;;;;;;4.37;2.33;;;0.10;99.90;;;;;;5057938;28;20234;-72
2022/01/18 04:09:05;;;;;;;6.50;2.27;;;0.10;99.90;;;;;;5055430;28;20198;-72
2022/01/18 04:11:32;;;;;;;5.03;2.53;;;0.10;99.90;;;;;;5064290;28;20267;-72
2022/01/18 04:13:59;;;;;;;5.47;2.50;;;0.10;99.90;;;;;;5059561;28;20214;-72
2022/01/18 04:16:26;;;;;;;6.70;2.27;;;0.10;99.90;;;;;;5062060;28;20229;-71
2022/01/18 04:18:58;;;;;;;4.17;2.20;;;0.10;99.90;;;;;;5056578;28;20202;-72
2022/01/18 04:26:58;;;;;;;7.17;2.67;;;0.10;99.90;;;;;;5063486;28;20227;-73
2022/01/18 04:29:26;;;;;;;4.77;2.20;;;0.10;99.90;;;;;;5061603;28;20225;-73
2022/01/18 04:31:53;;;;;;;3.43;1.90;;;0.10;99.90;;;;;;5061843;28;20210;-72
2022/01/18 04:34:19;;;;;;;5.97;2.20;;;0.10;99.90;;;;;;5053696;28;20239;-73
2022/01/18 04:36:49;;;;;;;3.70;2.00;;;0.10;99.90;;;;;;5045715;28;20225;-73
2022/01/18 04:39:17;;;;;;;7.03;2.37;;;0.10;99.90;;;;;;5053785;28;20206;-72
2022/01/18 04:41:45;;;;;;;7.27;2.33;;;0.10;99.90;;;;;;5054257;28;20275;-73
2022/01/18 04:48:24;;;;;;;4.77;2.10;;;0.20;99.90;;;;;;5050057;28;20619;-73
2022/01/18 04:49:49;;;;;;;4.93;1.80;;;0.20;99.90;;;;;;5057758;28;20732;-73
2022/01/18 04:52:18;;;;;;;5.27;2.13;;;0.20;99.90;;;;;;5058244;28;20213;-73
2022/01/18 04:54:56;;;;;;;5.17;2.00;;;0.30;99.90;;;;;;5060763;28;20201;-73
2022/01/18 05:00:09;;;;;;;3.33;2.00;;;0.30;99.90;;;;;;5057734;28;20223;-74
2022/01/18 05:02:36;;;;;;;3.00;2.03;;;0.30;99.90;;;;;;5057983;28;20939;-73
2022/01/18 05:05:04;;;;;;;5.00;1.83;;;0.40;99.90;;;;;;5062465;28;20214;-73
2022/01/18 05:07:32;;;;;;;3.53;1.83;;;0.40;99.90;;;;;;5054339;28;20213;-73
2022/01/18 05:09:59;;;;;;;3.40;1.73;;;0.40;99.90;;;;;;5059393;28;20267;-73
2022/01/18 05:12:38;;;;;;;8.27;2.07;;;0.50;99.90;;;;;;5056576;28;20235;-73
2022/01/18 05:15:20;;;;;;;4.20;2.10;;;0.50;99.90;;;;;;5053110;28;20209;-74
2022/01/18 05:18:10;;;;;;;4.83;2.33;;;0.50;99.90;;;;;;5055457;28;20228;-74
2022/01/18 05:20:53;;;;;;;4.90;1.93;;;0.50;99.90;;;;;;5058521;28;20674;-73
2022/01/18 05:23:21;;;;;;;6.47;2.50;;;0.50;99.90;;;;;;5043647;28;20235;-73
2022/01/18 05:25:48;;;;;;;5.10;2.20;;;0.50;99.90;;;;;;5051006;28;20198;-73
2022/01/18 05:28:15;;;;;;;6.40;2.70;;;0.50;99.90;;;;;;5052523;28;20210;-73
2022/01/18 05:30:42;;;;;;;6.07;2.10;;;0.50;99.90;;;;;;5063411;28;20215;-75
2022/01/18 05:33:10;;;;;;;5.83;2.20;;;0.50;99.90;;;;;;5057292;28;20221;-73
2022/01/18 05:35:38;;;;;;;4.37;2.23;;;0.50;99.90;;;;;;5064211;28;20241;-74
2022/01/18 05:38:06;;;;;;;3.93;2.10;;;0.50;99.90;;;;;;5064656;28;20213;-73
2022/01/18 05:40:35;;;;;;;5.03;1.93;;;0.50;99.90;;;;;;5054032;28;20209;-73
2022/01/18 05:43:01;;;;;;;4.10;1.97;;;0.40;99.90;;;;;;5058795;28;20210;-73
2022/01/18 05:45:28;;;;;;;6.10;1.60;;;0.40;99.90;;;;;;5052163;28;20292;-73
2022/01/18 05:47:55;;;;;;;8.37;1.93;;;0.30;99.90;;;;;;5057059;28;20659;-72
2022/01/18 05:50:22;;;;;;;4.93;2.20;;;0.30;99.90;;;;;;5053664;28;20210;-73
2022/01/18 05:52:49;;;;;;;6.00;2.10;;;0.30;99.90;;;;;;5054026;28;20206;-74
2022/01/18 05:55:16;;;;;;;3.57;1.93;;;0.20;99.90;;;;;;5059241;28;20465;-73
2022/01/18 05:57:45;;;;;;;4.17;1.80;;;0.20;99.90;;;;;;5054492;28;20627;-73
2022/01/18 06:00:20;;;;;;;5.37;2.23;;;0.30;99.90;;;;;;5055490;28;20281;-71
2022/01/18 06:02:59;;;;;;;6.37;1.90;;;0.20;99.90;;;;;;5058876;28;20193;-72
2022/01/18 06:08:12;;;;;;;5.83;2.40;;;0.20;99.90;;;;;;5053192;28;20213;-72
2022/01/18 06:10:39;;;;;;;4.97;1.97;;;0.20;99.90;;;;;;5054021;28;20241;-72
2022/01/18 06:13:08;;;;;;;4.30;2.40;;;0.20;99.90;;;;;;5069487;28;20208;-72
2022/01/18 06:15:35;;;;;;;5.40;2.20;;;0.20;99.90;;;;;;5058091;28;20213;-73
2022/01/18 06:18:02;;;;;;;5.73;1.90;;;0.20;99.90;;;;;;5060294;28;20212;-73
2022/01/18 06:20:29;;;;;;;5.67;2.03;;;0.10;99.90;;;;;;5056717;28;20213;-73
2022/01/18 06:22:56;;;;;;;4.27;1.70;;;0.10;99.90;;;;;;5056396;28;20202;-73
2022/01/18 06:25:23;;;;;;;3.47;2.07;;;0.10;99.90;;;;;;5054169;28;20231;-73
2022/01/18 06:27:50;;;;;;;5.97;2.17;;;0.10;99.90;;;;;;5058155;28;20206;-72
2022/01/18 06:30:18;;;;;;;7.47;2.07;;;0.10;99.90;;;;;;5042068;28;20556;-72
2022/01/18 06:32:45;;;;;;;7.03;2.23;;;0.10;99.90;;;;;;5053528;28;20872;-75
2022/01/18 06:35:14;;;;;;;4.40;2.30;;;0.10;99.90;;;;;;5050257;28;20736;-72
2022/01/18 06:37:42;;;;;;;5.30;2.50;;;0.10;99.90;;;;;;5036801;28;20226;-73
2022/01/18 06:40:10;;;;;;;7.30;2.20;;;0.10;99.90;;;;;;5048088;28;20224;-72
2022/01/18 06:42:37;;;;;;;3.90;1.90;;;0.10;99.90;;;;;;5047743;28;20253;-74
2022/01/18 06:45:06;;;;;;;8.17;2.20;;;0.20;99.90;;;;;;5056680;28;20194;-73
2022/01/18 06:47:34;;;;;;;3.37;2.07;;;0.20;99.90;;;;;;5056128;28;20225;-74
2022/01/18 06:50:01;;;;;;;5.93;2.00;;;0.20;99.90;;;;;;5070206;28;20266;-75
2022/01/18 06:52:28;;;;;;;7.23;2.13;;;0.20;99.90;;;;;;5056752;28;20289;-74
2022/01/18 06:54:55;;;;;;;6.37;2.10;;;0.20;99.90;;;;;;5070377;28;20259;-74
2022/01/18 06:57:22;;;;;;;3.40;2.20;;;0.20;99.90;;;;;;5057660;28;20234;-73
2022/01/18 06:59:49;;;;;;;3.60;2.07;;;0.20;99.90;;;;;;5057312;28;20293;-74
2022/01/18 07:02:16;;;;;;;5.20;2.27;;;0.20;99.90;;;;;;5065916;28;20329;-74
2022/01/18 07:04:44;;;;;;;4.47;1.73;;;0.40;99.90;;;;;;5066419;28;20296;-74
2022/01/18 07:07:11;;;;;;;3.93;1.90;;;0.30;99.90;;;;;;5051547;28;20211;-73
2022/01/18 07:09:38;;;;;;;5.30;2.43;;;0.30;99.90;;;;;;5055911;28;20206;-74
2022/01/18 07:12:10;;;;;;;2.80;2.00;;;0.40;99.90;;;;;;5062550;28;21013;-73
2022/01/18 07:14:37;;;;;;;4.33;2.03;;;0.40;99.90;;;;;;5057033;28;20651;-74
2022/01/18 07:17:04;;;;;;;4.50;1.97;;;0.40;99.90;;;;;;5060412;28;20672;-73
2022/01/18 07:19:32;;;;;;;3.13;2.00;;;0.50;99.90;;;;;;5061067;28;20248;-73
2022/01/18 07:22:01;;;;;;;4.27;2.47;;;0.50;99.90;;;;;;5058750;28;20651;-72
2022/01/18 07:24:37;;;;;;;3.27;1.70;;;0.60;99.90;;;;;;5065544;28;20277;-74
2022/01/18 07:27:05;;;;;;;3.00;1.80;;;0.70;99.90;;;;;;5055376;28;20669;-75
2022/01/18 07:29:32;;;;;;;5.30;2.30;;;0.90;99.90;;;;;;5062633;28;20198;-72
2022/01/18 07:31:59;;;;;;;9.60;2.97;;;1.10;99.90;;;;;;5061520;28;20242;-73
2022/01/18 07:34:27;;;;;;;6.37;1.83;;;1.20;99.90;;;;;;5062106;28;20300;-73
2022/01/18 07:36:54;;;;;;;3.77;1.80;;;1.40;99.90;;;;;;5054153;28;20320;-72
2022/01/18 07:39:22;;;;;;;6.67;2.57;;;1.50;99.90;;;;;;5041620;28;20210;-73
2022/01/18 07:41:49;;;;;;;5.13;2.33;;;1.50;99.90;;;;;;5053728;28;20296;-73
2022/01/18 07:44:16;;;;;;;5.70;2.27;;;1.60;99.90;;;;;;5058346;28;20273;-74
2022/01/18 07:46:43;;;;;;;5.80;2.30;;;1.60;99.90;;;;;;5061769;28;20300;-72
2022/01/18 07:49:10;;;;;;;4.53;2.67;;;1.70;99.90;;;;;;5058367;28;20210;-72
2022/01/18 07:51:37;;;;;;;6.70;2.23;;;1.90;99.90;;;;;;5061607;28;20213;-73
2022/01/18 07:54:04;;;;;;;5.03;1.80;;;2.10;99.90;;;;;;5064254;28;20214;-72
2022/01/18 07:56:32;;;;;;;5.37;2.00;;;2.30;99.90;;;;;;5055396;28;20226;-73
2022/01/18 07:58:59;;;;;;;5.87;1.77;;;2.40;99.90;;;;;;5058604;28;20234;-74
2022/01/18 08:01:26;;;;;;;6.10;2.17;;;2.60;99.90;;;;;;5058397;28;20638;-74
2022/01/18 08:03:53;;;;;;;5.80;2.20;;;2.80;99.90;;;;;;5058326;28;20267;-74
2022/01/18 08:06:20;;;;;;;7.07;2.03;;;3.00;99.90;;;;;;5058677;28;20264;-72
2022/01/18 08:08:46;;;;;;;3.03;1.70;;;3.20;99.90;;;;;;5066789;28;20292;-75
2022/01/18 08:11:13;;;;;;;3.00;1.70;;;3.40;99.90;;;;;;5065355;28;20316;-74
2022/01/18 08:13:45;;;;;;;4.97;2.33;;;3.70;99.90;;;;;;5045827;28;20207;-75
2022/01/18 08:16:33;;;;;;;7.10;2.40;;;3.90;99.90;;;;;;5058528;28;20209;-74
2022/01/18 08:19:02;;;;;;;6.87;2.20;;;4.10;99.90;;;;;;5041908;28;20218;-74
2022/01/18 08:21:29;;;;;;;6.17;1.83;;;4.20;99.90;;;;;;5052111;28;20220;-75
2022/01/18 08:23:56;;;;;;;4.20;2.00;;;4.40;99.90;;;;;;5057018;28;20232;-74
2022/01/18 08:26:23;;;;;;;5.20;2.00;;;4.60;99.90;;;;;;5057806;28;20202;-74
2022/01/18 08:28:52;;;;;;;3.80;1.73;;;4.70;99.90;;;;;;5056556;28;20265;-74
2022/01/18 08:31:19;;;;;;;2.53;1.67;;;4.60;99.90;;;;;;5060030;28;20348;-73
2022/01/18 08:33:46;;;;;;;6.67;2.00;;;4.50;99.90;;;;;;5051939;28;20210;-66
2022/01/18 08:36:13;;;;;;;4.57;2.70;;;4.30;99.90;;;;;;5053585;28;20220;-73
2022/01/18 08:38:40;;;;;;;4.17;1.77;;;4.20;99.90;;;;;;5051232;28;20590;-71
2022/01/18 08:41:08;;;;;;;5.00;1.93;;;4.10;99.90;;;;;;5058053;28;20625;-71
2022/01/18 08:43:37;;;;;;;3.33;1.90;;;4.10;99.90;;;;;;5052917;28;20209;-74
2022/01/18 08:46:06;;;;;;;5.50;2.43;;;4.10;99.90;;;;;;5042354;28;20202;-72
2022/01/18 08:48:34;;;;;;;5.17;1.93;;;4.20;99.90;;;;;;5052113;28;21300;-73
2022/01/18 08:51:00;;;;;;;4.87;2.13;;;4.40;99.90;;;;;;5051387;28;20210;-68
2022/01/18 08:53:27;;;;;;;4.90;2.03;;;4.70;99.90;;;;;;5051548;28;20206;-68
2022/01/18 08:55:54;;;;;;;4.53;1.60;;;5.00;99.90;;;;;;5052783;28;20198;-68
2022/01/18 08:58:22;;;;;;;5.00;2.07;;;5.40;99.90;;;;;;5053214;28;20232;-67
2022/01/18 09:00:49;;;;;;;4.97;2.30;;;5.90;99.90;;;;;;5055444;28;20209;-67
2022/01/18 09:03:17;;;;;;;5.00;2.00;;;6.70;99.90;;;;;;5055942;28;20297;-64
2022/01/18 09:05:45;;;;;;;4.67;2.00;;;8.20;99.90;;;;;;5049705;28;20715;-67
2022/01/18 09:08:13;;;;;;;5.57;1.80;;;9.80;99.90;;;;;;5049273;28;20672;-66
2022/01/18 09:10:40;;;;;;;3.47;1.97;;;10.80;97.60;;;;;;5050954;28;20785;-69
2022/01/18 09:13:07;;;;;;;4.87;2.00;;;11.80;93.30;;;;;;5055159;28;20208;-69
2022/01/18 09:15:34;;;;;;;5.17;2.13;;;12.80;85.00;;;;;;5051043;28;20274;-67
2022/01/18 09:18:01;;;;;;;7.30;2.43;;;13.30;78.20;;;;;;5053984;28;20228;-66
2022/01/18 09:20:31;;;;;;;3.80;2.03;;;13.70;73.00;;;;;;5051801;28;20201;-67
2022/01/18 09:22:58;;;;;;;7.30;2.70;;;14.10;68.90;;;;;;5050974;28;20217;-70
2022/01/18 09:25:27;;;;;;;3.67;2.00;;;14.10;65.30;;;;;;5049833;28;20206;-68
2022/01/18 09:27:55;;;;;;;3.50;2.10;;;14.40;65.00;;;;;;5047587;28;21136;-68
2022/01/18 09:30:24;;;;;;;3.93;2.63;;;14.60;62.60;;;;;;5052264;28;20206;-67
2022/01/18 09:32:52;;;;;;;5.17;2.50;;;14.80;61.80;;;;;;5049621;28;20210;-69
2022/01/18 09:35:19;;;;;;;7.47;2.73;;;15.00;59.20;;;;;;5051811;28;20301;-67
2022/01/18 09:37:48;;;;;;;5.53;2.83;;;15.30;59.20;;;;;;5052606;28;20221;-71
2022/01/18 09:40:19;;;;;;;7.00;2.57;;;15.60;58.00;;;;;;5053295;28;20554;-70
2022/01/18 09:42:46;;;;;;;5.27;3.10;;;16.10;57.20;;;;;;5050172;28;20240;-68
2022/01/18 09:45:15;;;;;;;5.20;2.80;;;16.50;56.00;;;;;;5052697;28;20213;-71
2022/01/18 09:47:46;;;;;;;4.90;2.50;;;16.70;55.00;;;;;;5051691;28;20202;-71
2022/01/18 09:50:17;;;;;;;5.43;2.73;;;17.10;56.00;;;;;;5051648;28;20210;-67
2022/01/18 09:52:47;;;;;;;8.07;4.00;;;17.80;53.50;;;;;;5052213;28;20304;-68
2022/01/18 09:55:16;;;;;;;6.23;2.57;;;18.50;51.80;;;;;;5051677;28;20205;-68
2022/01/18 09:57:42;;;;;;;6.57;2.67;;;19.40;52.00;;;;;;5050730;28;20237;-68
2022/01/18 10:00:10;;;;;;;4.60;2.60;;;20.40;48.10;;;;;;5047833;28;20655;-71
2022/01/18 10:02:37;;;;;;;5.10;3.17;;;20.90;47.80;;;;;;5050477;28;20273;-70
2022/01/18 10:05:19;;;;;;;4.70;2.92;;;22.10;45.80;;;;;;5050939;28;20206;-70
2022/01/18 10:07:46;;;;;;;5.13;3.08;;;22.90;42.90;;;;;;5052390;28;20204;-70
2022/01/18 10:10:14;;;;;;;5.15;2.65;;;23.40;41.90;;;;;;5050600;28;20292;-68
2022/01/18 10:12:41;;;;;;;3.75;2.70;;;22.90;39.80;;;;;;5048300;28;20674;-67
2022/01/18 10:15:08;;;;;;;5.80;2.80;;;23.10;41.70;;;;;;5049813;28;20204;-69
2022/01/18 10:17:37;;;;;;;6.75;3.40;;;24.00;40.30;;;;;;5046736;28;20457;-69
2022/01/18 10:20:06;;;;;;;6.88;3.22;;;24.60;39.10;;;;;;5056411;28;20296;-68
2022/01/18 10:22:40;;;;;;;4.97;2.63;;;25.40;38.40;;;;;;5055900;28;20237;-67
2022/01/18 10:25:18;;;;;;;8.23;3.40;;;26.20;36.90;;;;;;5056909;28;20198;-68
2022/01/18 10:27:47;;;;;;;6.40;3.28;;;27.10;35.80;;;;;;5057224;28;20280;-68
2022/01/18 10:30:22;;;;;;;6.10;3.85;;;27.50;34.50;;;;;;5056066;28;20440;-69
2022/01/18 10:33:07;;;;;;;5.13;3.30;;;27.30;33.00;;;;;;5054539;28;20228;-69
2022/01/18 10:35:34;;;;;;;5.53;3.50;;;27.40;33.90;;;;;;5057459;28;20237;-67
2022/01/18 10:38:00;;;;;;;6.55;3.30;;;28.00;33.20;;;;;;5054728;28;20236;-68
2022/01/18 10:40:29;;;;;;;13.23;5.07;;;28.60;32.50;;;;;;5055754;28;20213;-69
2022/01/18 10:43:02;;;;;;;7.40;3.15;;;28.70;32.00;;;;;;5056163;28;20231;-67
2022/01/18 10:45:33;;;;;;;4.70;3.13;;;29.00;32.00;;;;;;5057245;28;20205;-69
2022/01/18 10:48:04;;;;;;;7.30;3.22;;;29.50;31.80;;;;;;5056570;28;20201;-69
2022/01/18 10:50:33;;;;;;;6.55;3.17;;;30.00;30.70;;;;;;5056001;28;20213;-68
2022/01/18 10:53:12;;;;;;;5.93;2.90;;;30.70;30.30;;;;;;5054822;28;20949;-69
2022/01/18 10:55:41;;;;;;;6.15;3.22;;;31.70;29.50;;;;;;5056745;28;20213;-70
2022/01/18 10:58:11;;;;;;;6.10;3.05;;;32.70;28.70;;;;;;5051487;28;20234;-69
2022/01/18 11:00:39;;;;;;;5.88;3.33;;;33.60;28.20;;;;;;5058239;28;20252;-69
2022/01/18 11:03:06;;;;;;;6.38;3.00;;;34.70;27.70;;;;;;5058617;28;20202;-70
2022/01/18 11:05:34;;;;;;;5.40;2.97;;;35.30;26.60;;;;;;5055962;28;20217;-70
2022/01/18 11:08:04;;;;;;;6.68;3.50;;;35.10;26.10;;;;;;5054598;28;20639;-69
2022/01/18 11:10:33;;;;;;;5.55;2.70;;;34.60;25.90;;;;;;5054831;28;20213;-68
2022/01/18 11:13:07;;;;;;;6.55;3.00;;;34.30;26.20;;;;;;5056027;28;20827;-68
2022/01/18 11:15:36;;;;;;;5.40;3.20;;;34.40;26.30;;;;;;5057688;28;20205;-69
2022/01/18 11:18:07;;;;;;;4.68;2.60;;;34.40;26.00;;;;;;5057359;28;20272;-67
2022/01/18 11:20:37;;;;;;;3.13;2.53;;;34.00;26.30;;;;;;5057402;28;20208;-69
2022/01/18 11:23:06;;;;;;;5.95;3.22;;;33.70;26.10;;;;;;5045520;28;20300;-68
2022/01/18 11:25:33;;;;;;;5.20;3.33;;;33.70;26.10;;;;;;5057641;28;20218;-67
2022/01/18 11:28:02;;;;;;;4.68;3.33;;;33.90;25.90;;;;;;5046683;28;20234;-68
2022/01/18 11:30:32;;;;;;;9.05;4.20;;;33.80;25.80;;;;;;5055826;28;20308;-68
2022/01/18 11:33:01;;;;;;;5.30;2.97;;;33.70;25.70;;;;;;5053672;28;20343;-68
2022/01/18 11:35:37;;;;;;;5.38;3.25;;;33.60;26.00;;;;;;5055506;28;20241;-68
2022/01/18 11:38:15;;;;;;;5.45;3.25;;;33.30;25.80;;;;;;5046556;28;20216;-68
2022/01/18 11:40:47;;;;;;;5.65;3.25;;;33.30;25.90;;;;;;5053135;28;20198;-69
2022/01/18 11:43:16;;;;;;;4.35;2.88;;;33.00;25.70;;;;;;5052073;28;20214;-68
2022/01/18 11:45:45;;;;;;;6.22;3.15;;;32.90;25.70;;;;;;5048310;28;20209;-70
2022/01/18 11:48:22;;;;;;;7.60;3.75;;;32.60;26.20;;;;;;5046802;28;20308;-68
2022/01/18 11:51:00;;;;;;;6.43;3.90;;;31.80;25.60;;;;;;5040380;28;20658;-68
2022/01/18 11:53:42;;;;;;;6.00;3.53;;;30.50;25.70;;;;;;5047164;28;20229;-68
2022/01/18 11:56:14;;;;;;;4.65;2.75;;;28.90;26.70;;;;;;5052601;28;20591;-67
2022/01/18 11:58:44;;;;;;;7.50;3.10;;;27.00;27.50;;;;;;5053196;28;20329;-68
2022/01/18 12:01:12;;;;;;;4.63;3.22;;;25.00;28.80;;;;;;5052773;28;20810;-68
2022/01/18 12:03:49;;;;;;;6.45;3.53;;;23.00;29.90;;;;;;5053099;28;20624;-68
2022/01/18 12:06:16;;;;;;;6.75;2.85;;;21.20;31.60;;;;;;5053259;28;20815;-68
2022/01/18 12:08:44;;;;;;;7.70;3.30;;;19.70;33.10;;;;;;5050352;28;20205;-67
2022/01/18 12:11:32;;;;;;;5.95;3.17;;;18.30;34.50;;;;;;5045068;28;20233;-69
2022/01/18 12:14:03;;;;;;;8.03;3.07;;;17.10;36.50;;;;;;5047939;28;20214;-68
2022/01/18 12:16:31;;;;;;;6.00;3.40;;;15.70;38.30;;;;;;5043167;28;20267;-68
2022/01/18 12:19:01;;;;;;;7.50;2.97;;;14.70;39.80;;;;;;5049195;28;20601;-67
2022/01/18 12:21:30;;;;;;;6.90;3.07;;;13.80;41.20;;;;;;5051192;28;20333;-69
2022/01/18 12:23:58;;;;;;;4.63;2.73;;;13.10;42.60;;;;;;5049825;28;20205;-68
2022/01/18 12:26:37;;;;;;;6.03;2.50;;;12.60;44.10;;;;;;5051927;28;20654;-67
2022/01/18 12:35:01;;;;;;;6.93;2.67;;;11.00;47.30;;;;;;5050457;28;20246;-66
2022/01/18 12:37:40;;;;;;;4.60;2.60;;;10.40;48.60;;;;;;5047017;28;20209;-66
2022/01/18 12:40:11;;;;;;;5.70;2.67;;;9.90;50.40;;;;;;5046475;28;20568;-66
2022/01/18 12:45:32;;;;;;;6.00;2.90;;;9.30;52.60;;;;;;5052100;28;20278;-66
2022/01/18 12:48:02;;;;;;;5.73;3.20;;;9.00;53.60;;;;;;5047167;28;20572;-67
2022/01/18 12:50:31;;;;;;;9.80;3.20;;;8.90;54.10;;;;;;5049905;28;20268;-68
2022/01/18 12:53:00;;;;;;;7.07;3.20;;;8.70;54.70;;;;;;5050208;28;20237;-66
2022/01/18 12:55:35;;;;;;;7.03;3.20;;;8.50;55.40;;;;;;5047600;28;20285;-66
2022/01/18 12:58:05;;;;;;;6.87;2.93;;;8.20;56.20;;;;;;5048244;28;20663;-67
2022/01/18 13:00:38;;;;;;;8.30;3.10;;;8.00;56.90;;;;;;5046397;28;20289;-66
2022/01/18 13:03:06;;;;;;;6.50;3.17;;;7.80;57.80;;;;;;5050507;28;20569;-66
2022/01/18 13:05:35;;;;;;;6.90;3.10;;;7.60;58.30;;;;;;5041906;28;20305;-65
2022/01/18 13:08:03;;;;;;;9.37;3.70;;;7.50;59.00;;;;;;5050455;28;20570;-65
2022/01/18 13:10:42;;;;;;;6.90;3.47;;;7.40;60.10;;;;;;5049872;28;20293;-70
2022/01/18 13:13:11;;;;;;;7.27;3.30;;;7.20;60.00;;;;;;5051183;28;20202;-66
2022/01/18 13:15:52;;;;;;;9.23;3.73;;;7.10;60.90;;;;;;5051340;28;20301;-71
2022/01/18 13:24:11;;;;;;;6.23;3.40;;;6.80;63.40;;;;;;5052616;28;20216;-72
2022/01/18 13:26:43;;;;;;;7.20;3.03;;;6.70;63.20;;;;;;5051984;28;20555;-75
2022/01/18 13:29:13;;;;;;;7.07;3.10;;;6.60;63.90;;;;;;5049035;28;20264;-73
2022/01/18 13:31:45;;;;;;;5.70;3.17;;;6.50;64.60;;;;;;5052154;28;20269;-69
2022/01/18 13:34:14;;;;;;;8.27;3.87;;;6.30;65.90;;;;;;5051514;28;20361;-69
2022/01/18 13:36:52;;;;;;;8.77;3.87;;;6.20;65.90;;;;;;5051950;28;20624;-72
2022/01/18 13:39:31;;;;;;;5.97;3.30;;;6.20;66.90;;;;;;5048582;28;20228;-74
2022/01/18 13:42:03;;;;;;;9.43;3.43;;;6.10;67.30;;;;;;5053614;28;20209;-74
2022/01/18 13:44:31;;;;;;;6.70;3.10;;;6.00;67.90;;;;;;5040993;28;20206;-77
2022/01/18 13:47:16;;;;;;;8.10;2.97;;;5.90;68.80;;;;;;5053593;28;20233;-77
2022/01/18 13:49:43;;;;;;;7.27;3.23;;;5.80;69.40;;;;;;5052647;28;20240;-70
2022/01/18 13:52:12;;;;;;;15.87;3.27;;;5.80;70.20;;;;;;5048275;28;20303;-72
2022/01/18 13:54:49;;;;;;;6.30;3.07;;;5.80;71.20;;;;;;5052884;28;20233;-71
2022/01/18 13:57:17;;;;;;;5.80;3.17;;;5.70;71.60;;;;;;5051078;28;20351;-71
2022/01/18 13:59:44;;;;;;;5.13;3.10;;;5.60;72.50;;;;;;5051861;28;20230;-73
2022/01/18 14:02:15;;;;;;;5.20;3.23;;;5.50;73.40;;;;;;5050999;28;20229;-73
2022/01/18 14:04:42;;;;;;;6.37;3.50;;;5.50;74.50;;;;;;5052284;28;20535;-74
2022/01/18 14:07:10;;;;;;;8.87;3.30;;;5.40;75.70;;;;;;5051903;28;20814;-70
2022/01/18 14:09:37;;;;;;;6.43;3.27;;;5.40;77.00;;;;;;5052584;28;20256;-73